createdAt,value
2022-11-28T00:00:09.223Z,60.04
2022-11-28T00:02:43.043Z,60.46
2022-11-28T00:05:13.619Z,59.98
2022-11-28T00:07:44.633Z,60.24
2022-11-28T00:10:15.568Z,60.46
2022-11-28T00:12:45.855Z,60.48
2022-11-28T00:15:16.758Z,60.00
2022-11-28T00:17:47.913Z,59.65
2022-11-28T00:20:22.981Z,58.98
2022-11-28T00:22:53.709Z,58.79
2022-11-28T00:25:24.218Z,59.06
2022-11-28T00:27:54.693Z,58.34
2022-11-28T00:30:25.357Z,57.92
2022-11-28T00:32:56.076Z,57.38
2022-11-28T00:35:26.906Z,57.07
2022-11-28T00:37:57.770Z,56.53
2022-11-28T00:40:28.040Z,56.06
2022-11-28T00:42:59.808Z,56.38
2022-11-28T00:45:30.122Z,56.28
2022-11-28T00:48:01.342Z,56.87
2022-11-28T00:50:31.607Z,57.31
2022-11-28T00:53:02.477Z,57.28
2022-11-28T00:55:32.970Z,57.42
2022-11-28T00:58:03.935Z,56.99
2022-11-28T01:00:34.945Z,56.78
2022-11-28T01:03:05.500Z,56.94
2022-11-28T01:05:42.605Z,56.90
2022-11-28T01:08:15.969Z,56.71
2022-11-28T01:10:47.156Z,56.84
2022-11-28T01:13:18.036Z,56.88
2022-11-28T01:15:49.039Z,56.36
2022-11-28T01:18:19.793Z,56.17
2022-11-28T01:20:51.030Z,56.48
2022-11-28T01:23:22.132Z,56.39
2022-11-28T01:25:52.865Z,56.44
2022-11-28T01:28:23.305Z,55.24
2022-11-28T01:30:54.081Z,54.95
2022-11-28T01:33:24.656Z,54.72
2022-11-28T01:35:59.852Z,54.71
2022-11-28T01:38:31.124Z,54.96
2022-11-28T01:41:01.506Z,54.77
2022-11-28T01:43:33.201Z,55.59
2022-11-28T01:46:04.809Z,55.81
2022-11-28T01:48:39.806Z,55.64
2022-11-28T01:51:12.671Z,54.83
2022-11-28T01:53:47.674Z,55.20
2022-11-28T01:56:26.889Z,55.45
2022-11-28T01:59:01.393Z,54.60
2022-11-28T02:01:31.944Z,55.08
2022-11-28T02:04:02.287Z,55.68
2022-11-28T02:06:34.151Z,54.61
2022-11-28T02:09:05.156Z,54.28
2022-11-28T02:12:00.101Z,54.61
2022-11-28T02:14:39.426Z,54.84
2022-11-28T02:17:19.078Z,54.92
2022-11-28T02:20:06.225Z,55.43
2022-11-28T02:22:43.913Z,54.98
2022-11-28T02:25:21.362Z,54.49
2022-11-28T02:28:23.720Z,53.57
2022-11-28T02:31:09.584Z,52.99
2022-11-28T02:33:46.422Z,53.61
2022-11-28T02:36:37.520Z,53.12
2022-11-28T02:39:33.344Z,53.07
2022-11-28T02:42:12.219Z,53.01
2022-11-28T02:45:00.715Z,53.06
2022-11-28T02:47:34.345Z,52.80
2022-11-28T02:50:24.320Z,53.30
2022-11-28T02:52:59.281Z,53.08
2022-11-28T02:55:29.923Z,53.19
2022-11-28T02:58:00.567Z,53.75
2022-11-28T03:00:37.893Z,54.30
2022-11-28T03:03:58.540Z,54.31
2022-11-28T03:07:09.743Z,54.38
2022-11-28T03:09:58.512Z,54.08
2022-11-28T03:12:55.040Z,54.06
2022-11-28T03:15:32.373Z,54.33
2022-11-28T03:18:11.883Z,54.37
2022-11-28T03:20:45.373Z,54.06
2022-11-28T03:23:50.267Z,54.20
2022-11-28T03:26:49.256Z,54.29
2022-11-28T03:29:27.639Z,53.97
2022-11-28T03:32:03.047Z,54.25
2022-11-28T03:34:45.467Z,54.34
2022-11-28T03:37:19.582Z,54.07
2022-11-28T03:39:53.956Z,53.93
2022-11-28T03:42:27.453Z,54.13
2022-11-28T03:45:24.331Z,53.26
2022-11-28T03:48:02.153Z,53.22
2022-11-28T03:50:46.280Z,52.93
2022-11-28T03:53:20.766Z,52.42
2022-11-28T03:56:05.974Z,51.94
2022-11-28T03:58:40.036Z,51.79
2022-11-28T04:01:27.398Z,51.69
2022-11-28T04:04:31.396Z,51.92
2022-11-28T04:07:23.546Z,51.79
2022-11-28T04:10:04.440Z,51.78
2022-11-28T04:12:45.473Z,51.55
2022-11-28T04:15:43.371Z,51.69
2022-11-28T04:18:39.106Z,51.95
2022-11-28T04:21:22.112Z,51.85
2022-11-28T04:23:55.817Z,52.47
2022-11-28T04:26:35.553Z,52.94
2022-11-28T04:29:16.510Z,53.67
2022-11-28T04:31:48.568Z,51.85
2022-11-28T04:34:20.842Z,51.79
2022-11-28T04:36:51.820Z,52.11
2022-11-28T04:39:25.175Z,52.06
2022-11-28T04:42:09.486Z,51.23
2022-11-28T04:45:06.296Z,51.46
2022-11-28T04:47:37.029Z,50.25
2022-11-28T04:50:08.533Z,50.08
2022-11-28T04:52:53.287Z,50.12
2022-11-28T04:55:33.689Z,50.09
2022-11-28T04:58:10.817Z,49.84
2022-11-28T05:00:41.599Z,49.97
2022-11-28T05:03:12.477Z,49.57
2022-11-28T05:05:50.680Z,50.22
2022-11-28T05:08:21.057Z,50.71
2022-11-28T05:10:52.431Z,51.14
2022-11-28T05:13:22.756Z,51.37
2022-11-28T05:15:53.952Z,51.73
2022-11-28T05:18:24.174Z,52.03
2022-11-28T05:20:54.984Z,52.85
2022-11-28T05:23:26.050Z,53.10
2022-11-28T05:25:56.781Z,53.48
2022-11-28T05:28:27.058Z,53.64
2022-11-28T05:31:01.881Z,53.92
2022-11-28T05:33:33.333Z,53.76
2022-11-28T05:36:12.657Z,53.88
2022-11-28T05:38:45.242Z,53.62
2022-11-28T05:41:24.789Z,54.01
2022-11-28T05:43:55.180Z,54.62
2022-11-28T05:46:26.066Z,54.69
2022-11-28T05:48:57.727Z,54.76
2022-11-28T05:51:30.207Z,54.81
2022-11-28T05:54:01.043Z,54.74
2022-11-28T05:56:31.738Z,54.58
2022-11-28T05:59:02.636Z,54.69
2022-11-28T06:01:33.538Z,54.58
2022-11-28T06:04:04.265Z,54.46
2022-11-28T06:06:37.777Z,54.37
2022-11-28T06:09:08.519Z,54.44
2022-11-28T06:11:39.439Z,54.40
2022-11-28T06:14:11.086Z,53.93
2022-11-28T06:16:44.459Z,54.16
2022-11-28T06:19:14.874Z,54.67
2022-11-28T06:21:45.494Z,54.20
2022-11-28T06:24:16.314Z,54.70
2022-11-28T06:26:47.485Z,54.73
2022-11-28T06:29:19.824Z,54.88
2022-11-28T06:31:53.397Z,54.84
2022-11-28T06:34:24.868Z,54.38
2022-11-28T06:36:55.943Z,54.75
2022-11-28T06:39:26.764Z,54.83
2022-11-28T06:41:57.058Z,54.37
2022-11-28T06:44:27.646Z,54.67
2022-11-28T06:46:57.945Z,54.09
2022-11-28T06:49:28.855Z,54.03
2022-11-28T06:52:01.654Z,54.05
2022-11-28T06:54:32.310Z,54.51
2022-11-28T06:57:03.227Z,54.06
2022-11-28T06:59:36.788Z,53.45
2022-11-28T07:02:08.129Z,53.60
2022-11-28T07:04:39.559Z,53.89
2022-11-28T07:07:13.694Z,53.47
2022-11-28T07:09:48.644Z,53.45
2022-11-28T07:12:19.776Z,52.99
2022-11-28T07:14:50.256Z,53.28
2022-11-28T07:17:21.015Z,52.71
2022-11-28T07:19:55.011Z,52.67
2022-11-28T07:22:26.998Z,52.64
2022-11-28T07:25:01.524Z,52.75
2022-11-28T07:27:32.103Z,53.55
2022-11-28T07:30:02.997Z,53.50
2022-11-28T07:32:33.644Z,53.56
2022-11-28T07:35:05.474Z,53.59
2022-11-28T07:37:40.258Z,53.74
2022-11-28T07:40:11.707Z,53.30
2022-11-28T07:42:42.297Z,53.50
2022-11-28T07:45:13.423Z,53.35
2022-11-28T07:47:44.004Z,53.48
2022-11-28T07:50:14.583Z,53.73
2022-11-28T07:52:50.546Z,53.95
2022-11-28T07:55:21.118Z,53.85
2022-11-28T07:57:51.554Z,53.81
2022-11-28T08:00:23.357Z,53.73
2022-11-28T08:02:53.877Z,54.12
2022-11-28T08:05:27.831Z,54.06
2022-11-28T08:07:58.816Z,54.25
2022-11-28T08:10:29.299Z,54.42
2022-11-28T08:13:00.037Z,54.54
2022-11-28T08:15:32.643Z,54.85
2022-11-28T08:18:04.263Z,54.49
2022-11-28T08:20:34.737Z,54.62
2022-11-28T08:23:05.052Z,54.31
2022-11-28T08:25:35.859Z,54.84
2022-11-28T08:28:06.716Z,54.71
2022-11-28T08:30:37.358Z,54.93
2022-11-28T08:33:09.292Z,55.24
2022-11-28T08:35:42.714Z,55.23
2022-11-28T08:38:13.332Z,54.96
2022-11-28T08:40:43.995Z,55.12
2022-11-28T08:43:15.539Z,55.24
2022-11-28T08:45:46.799Z,55.17
2022-11-28T08:48:18.179Z,54.95
2022-11-28T08:50:50.218Z,54.67
2022-11-28T08:53:20.723Z,54.43
2022-11-28T08:55:53.730Z,54.50
2022-11-28T08:58:24.493Z,54.47
2022-11-28T09:00:55.111Z,54.52
2022-11-28T09:03:25.832Z,54.25
2022-11-28T09:06:02.739Z,54.57
2022-11-28T09:08:33.752Z,54.46
2022-11-28T09:11:04.321Z,54.40
2022-11-28T09:13:34.740Z,54.48
2022-11-28T09:16:05.789Z,54.37
2022-11-28T09:18:39.024Z,54.29
2022-11-28T09:21:15.261Z,54.78
2022-11-28T09:23:46.964Z,54.72
2022-11-28T09:26:19.523Z,55.12
2022-11-28T09:28:50.254Z,55.36
2022-11-28T09:31:22.021Z,55.50
2022-11-28T09:33:52.694Z,55.70
2022-11-28T09:36:25.279Z,55.62
2022-11-28T09:38:55.684Z,55.65
2022-11-28T09:41:50.782Z,55.88
2022-11-28T09:44:46.844Z,56.17
2022-11-28T09:47:34.311Z,55.58
2022-11-28T09:50:33.708Z,55.88
2022-11-28T09:53:40.827Z,55.92
2022-11-28T09:56:15.848Z,55.47
2022-11-28T09:59:00.034Z,55.47
2022-11-28T10:01:47.496Z,55.76
2022-11-28T10:04:39.734Z,55.59
2022-11-28T10:07:41.185Z,55.64
2022-11-28T10:10:33.982Z,55.93
2022-11-28T10:13:36.560Z,56.01
2022-11-28T10:16:32.971Z,56.43
2022-11-28T10:19:20.337Z,56.33
2022-11-28T10:22:00.245Z,56.74
2022-11-28T10:24:43.200Z,56.62
2022-11-28T10:27:15.068Z,56.92
2022-11-28T10:30:00.523Z,56.59
2022-11-28T10:32:46.790Z,57.18
2022-11-28T10:35:38.613Z,56.96
2022-11-28T10:38:14.852Z,57.11
2022-11-28T10:40:56.094Z,57.29
2022-11-28T10:43:33.134Z,57.26
2022-11-28T10:46:21.357Z,57.54
2022-11-28T10:49:02.077Z,57.72
2022-11-28T10:51:51.401Z,57.64
2022-11-28T10:54:59.937Z,57.63
2022-11-28T10:57:46.098Z,57.73
2022-11-28T11:00:21.575Z,57.83
2022-11-28T11:02:59.889Z,57.81
2022-11-28T11:05:35.890Z,58.31
2022-11-28T11:08:23.636Z,58.08
2022-11-28T11:11:24.860Z,58.27
2022-11-28T11:14:15.587Z,58.32
2022-11-28T11:16:53.553Z,58.71
2022-11-28T11:19:39.142Z,58.79
2022-11-28T11:22:29.397Z,58.61
2022-11-28T11:25:14.026Z,59.06
2022-11-28T11:27:54.326Z,58.81
2022-11-28T11:30:31.648Z,59.00
2022-11-28T11:33:03.731Z,58.70
2022-11-28T11:35:46.162Z,59.43
2022-11-28T11:38:24.811Z,58.95
2022-11-28T11:40:55.113Z,59.18
2022-11-28T11:43:25.720Z,58.85
2022-11-28T11:46:13.786Z,59.31
2022-11-28T11:48:46.539Z,59.26
2022-11-28T11:51:35.067Z,59.28
2022-11-28T11:54:18.664Z,59.37
2022-11-28T11:57:05.850Z,59.26
2022-11-28T11:59:51.453Z,59.56
2022-11-28T12:02:26.853Z,59.71
2022-11-28T12:05:03.974Z,59.65
2022-11-28T12:07:44.154Z,59.94
2022-11-28T12:10:18.475Z,59.51
2022-11-28T12:12:52.254Z,59.33
2022-11-28T12:15:28.189Z,59.55
2022-11-28T12:18:10.828Z,59.11
2022-11-28T12:21:05.079Z,59.55
2022-11-28T12:24:13.314Z,59.45
2022-11-28T12:26:53.593Z,59.42
2022-11-28T12:29:28.898Z,59.33
2022-11-28T12:32:18.160Z,59.45
2022-11-28T12:34:48.991Z,59.00
2022-11-28T12:38:03.122Z,59.23
2022-11-28T12:40:41.420Z,59.80
2022-11-28T12:43:18.894Z,59.37
2022-11-28T12:45:52.896Z,59.52
2022-11-28T12:48:29.047Z,59.38
2022-11-28T12:51:28.875Z,59.60
2022-11-28T12:54:05.895Z,59.51
2022-11-28T12:56:51.154Z,59.33
2022-11-28T12:59:30.301Z,59.89
2022-11-28T13:02:35.524Z,59.78
2022-11-28T13:05:34.856Z,60.11
2022-11-28T13:08:20.269Z,60.75
2022-11-28T13:11:04.226Z,60.39
2022-11-28T13:13:44.982Z,59.84
2022-11-28T13:16:34.906Z,60.22
2022-11-28T13:19:27.297Z,60.11
2022-11-28T13:22:03.102Z,60.08
2022-11-28T13:24:43.741Z,60.06
2022-11-28T13:27:37.165Z,60.32
2022-11-28T13:30:28.100Z,59.61
2022-11-28T13:33:31.831Z,59.90
2022-11-28T13:36:02.970Z,59.87
2022-11-28T13:39:12.871Z,59.75
2022-11-28T13:45:08.294Z,59.83
2022-11-28T13:47:39.619Z,59.83
2022-11-28T13:50:34.825Z,59.83
2022-11-28T13:53:25.115Z,59.52
2022-11-28T13:56:06.491Z,60.16
2022-11-28T13:58:49.643Z,59.79
2022-11-28T14:01:24.583Z,59.91
2022-11-28T14:04:02.220Z,59.51
2022-11-28T14:06:41.441Z,60.06
2022-11-28T14:09:16.940Z,60.21
2022-11-28T14:12:10.203Z,60.64
2022-11-28T14:14:53.033Z,61.08
2022-11-28T14:17:45.735Z,60.42
2022-11-28T14:20:18.932Z,60.38
2022-11-28T14:23:13.457Z,60.51
2022-11-28T14:25:47.815Z,60.59
2022-11-28T14:28:21.819Z,60.31
2022-11-28T14:30:53.365Z,60.16
2022-11-28T14:33:44.145Z,60.55
2022-11-28T14:36:29.823Z,60.76
2022-11-28T14:39:15.229Z,60.46
2022-11-28T14:42:07.933Z,61.07
2022-11-28T14:44:46.283Z,60.73
2022-11-28T14:47:19.340Z,60.92
2022-11-28T14:49:51.505Z,61.01
2022-11-28T14:52:41.044Z,61.00
2022-11-28T14:55:13.018Z,61.19
2022-11-28T14:57:46.303Z,61.92
2022-11-28T15:00:19.646Z,61.22
2022-11-28T15:03:30.591Z,60.85
2022-11-28T15:06:09.423Z,60.76
2022-11-28T15:09:02.121Z,60.77
2022-11-28T15:12:09.329Z,60.14
2022-11-28T15:14:42.334Z,59.79
2022-11-28T15:17:15.466Z,60.02
2022-11-28T15:19:49.221Z,60.36
2022-11-28T15:22:50.302Z,60.33
2022-11-28T15:25:22.519Z,59.97
2022-11-28T15:27:56.283Z,59.92
2022-11-28T15:30:27.681Z,59.84
2022-11-28T15:33:00.685Z,60.12
2022-11-28T15:35:31.485Z,60.59
2022-11-28T15:38:02.369Z,60.76
2022-11-28T15:40:37.298Z,60.74
2022-11-28T15:43:12.645Z,60.94
2022-11-28T15:45:43.753Z,60.68
2022-11-28T15:48:40.674Z,61.00
2022-11-28T15:51:34.268Z,60.49
2022-11-28T15:54:27.586Z,61.01
2022-11-28T15:56:59.235Z,60.88
2022-11-28T15:59:31.005Z,60.94
2022-11-28T16:02:23.984Z,61.23
2022-11-28T16:05:22.708Z,61.11
2022-11-28T16:07:53.544Z,60.80
2022-11-28T16:10:27.521Z,60.99
2022-11-28T16:13:04.282Z,60.82
2022-11-28T16:15:35.177Z,60.79
2022-11-28T16:18:08.014Z,60.77
2022-11-28T16:20:38.902Z,60.96
2022-11-28T16:23:21.882Z,61.16
2022-11-28T16:26:03.497Z,60.76
2022-11-28T16:28:41.746Z,61.29
2022-11-28T16:31:22.456Z,61.24
2022-11-28T16:33:53.091Z,61.48
2022-11-28T16:36:27.861Z,61.49
2022-11-28T16:39:15.660Z,61.38
2022-11-28T16:42:16.868Z,61.92
2022-11-28T16:44:47.305Z,61.89
2022-11-28T16:47:32.044Z,61.89
2022-11-28T16:50:15.548Z,61.85
2022-11-28T16:52:48.347Z,61.67
2022-11-28T16:55:30.874Z,62.18
2022-11-28T16:58:11.273Z,62.13
2022-11-28T17:00:45.552Z,62.09
2022-11-28T17:03:42.392Z,62.31
2022-11-28T17:06:21.984Z,61.88
2022-11-28T17:08:53.095Z,62.08
2022-11-28T17:11:25.893Z,62.43
2022-11-28T17:13:57.826Z,62.55
2022-11-28T17:16:29.217Z,62.43
2022-11-28T17:18:59.795Z,62.56
2022-11-28T17:21:43.732Z,62.58
2022-11-28T17:24:22.989Z,63.12
2022-11-28T17:26:54.989Z,62.74
2022-11-28T17:29:29.626Z,62.48
2022-11-28T17:32:03.146Z,62.59
2022-11-28T17:34:35.992Z,62.99
2022-11-28T17:37:07.199Z,63.25
2022-11-28T17:39:39.806Z,63.22
2022-11-28T17:42:12.523Z,63.30
2022-11-28T17:44:47.393Z,63.41
2022-11-28T17:47:20.183Z,63.45
2022-11-28T17:49:51.470Z,63.92
2022-11-28T17:52:22.641Z,63.63
2022-11-28T17:54:53.771Z,63.53
2022-11-28T17:57:25.058Z,63.38
2022-11-28T17:59:55.807Z,63.65
2022-11-28T18:02:26.671Z,64.20
2022-11-28T18:04:56.955Z,63.82
2022-11-28T18:07:27.611Z,63.97
2022-11-28T18:09:58.056Z,63.93
2022-11-28T18:12:28.626Z,64.23
2022-11-28T18:15:01.131Z,64.17
2022-11-28T18:17:32.590Z,64.58
2022-11-28T18:20:02.858Z,64.24
2022-11-28T18:22:33.544Z,64.61
2022-11-28T18:25:04.671Z,64.66
2022-11-28T18:27:36.375Z,65.06
2022-11-28T18:30:08.032Z,65.08
2022-11-28T18:32:38.777Z,64.78
2022-11-28T18:35:10.690Z,64.89
2022-11-28T18:37:42.140Z,65.00
2022-11-28T18:40:12.848Z,65.44
2022-11-28T18:42:46.466Z,65.53
2022-11-28T18:45:17.842Z,65.46
2022-11-28T18:47:49.130Z,65.28
2022-11-28T18:50:20.689Z,65.29
2022-11-28T18:52:52.155Z,65.67
2022-11-28T18:55:22.974Z,65.56
2022-11-28T18:57:53.468Z,65.51
2022-11-28T19:00:24.682Z,66.08
2022-11-28T19:02:56.535Z,66.17
2022-11-28T19:05:27.322Z,66.26
2022-11-28T19:07:58.741Z,65.87
2022-11-28T19:10:29.406Z,65.94
2022-11-28T19:13:01.318Z,66.02
2022-11-28T19:15:31.878Z,66.42
2022-11-28T19:18:02.717Z,66.70
2022-11-28T19:20:35.716Z,66.69
2022-11-28T19:23:09.244Z,66.73
2022-11-28T19:25:40.884Z,66.53
2022-11-28T19:28:13.696Z,66.87
2022-11-28T19:30:46.299Z,66.92
2022-11-28T19:33:16.927Z,66.86
2022-11-28T19:35:47.865Z,66.69
2022-11-28T19:38:18.550Z,66.66
2022-11-28T19:40:50.336Z,67.00
2022-11-28T19:43:21.018Z,67.37
2022-11-28T19:45:58.605Z,67.34
2022-11-28T19:48:31.262Z,67.15
2022-11-28T19:51:02.121Z,67.13
2022-11-28T19:53:34.636Z,67.38
2022-11-28T19:56:07.782Z,67.78
2022-11-28T19:58:38.372Z,67.24
2022-11-28T20:01:14.380Z,67.49
2022-11-28T20:03:46.114Z,67.77
2022-11-28T20:06:19.511Z,67.65
2022-11-28T20:08:52.782Z,67.82
2022-11-28T20:11:26.717Z,67.81
2022-11-28T20:14:00.009Z,67.78
2022-11-28T20:16:35.765Z,68.16
2022-11-28T20:19:07.347Z,68.33
2022-11-28T20:21:38.106Z,68.00
2022-11-28T20:24:12.097Z,68.21
2022-11-28T20:26:44.083Z,68.37
2022-11-28T20:29:17.389Z,68.12
2022-11-28T20:31:49.945Z,68.55
2022-11-28T20:34:20.977Z,68.62
2022-11-28T20:36:54.199Z,68.82
2022-11-28T20:39:28.591Z,68.86
2022-11-28T20:41:58.871Z,68.60
2022-11-28T20:44:29.185Z,68.93
2022-11-28T20:47:00.219Z,69.17
2022-11-28T20:49:30.682Z,69.09
2022-11-28T20:52:04.583Z,68.99
2022-11-28T20:54:35.391Z,69.47
2022-11-28T20:57:20.740Z,69.23
2022-11-28T20:59:52.041Z,69.30
2022-11-28T21:02:22.833Z,69.32
2022-11-28T21:04:53.500Z,69.11
2022-11-28T21:07:26.236Z,68.94
2022-11-28T21:10:00.680Z,69.17
2022-11-28T21:12:31.068Z,69.48
2022-11-28T21:15:02.936Z,69.02
2022-11-28T21:17:34.038Z,68.96
2022-11-28T21:20:04.984Z,69.04
2022-11-28T21:22:35.233Z,69.53
2022-11-28T21:25:06.327Z,69.48
2022-11-28T21:27:36.964Z,69.44
2022-11-28T21:30:07.982Z,69.10
2022-11-28T21:32:42.409Z,69.01
2022-11-28T21:35:12.895Z,69.61
2022-11-28T21:37:43.309Z,69.29
2022-11-28T21:40:14.509Z,69.50
2022-11-28T21:42:44.835Z,69.71
2022-11-28T21:45:15.136Z,69.49
2022-11-28T21:47:45.950Z,69.41
2022-11-28T21:50:16.308Z,69.32
2022-11-28T21:52:47.191Z,69.58
2022-11-28T21:55:19.221Z,69.44
2022-11-28T21:57:50.229Z,69.24
2022-11-28T22:00:51.621Z,69.55
2022-11-28T22:03:14.322Z,69.23
2022-11-28T22:05:45.051Z,69.36
2022-11-28T22:08:15.598Z,69.52
2022-11-28T22:10:47.270Z,69.36
2022-11-28T22:13:17.864Z,69.75
2022-11-28T22:15:48.294Z,69.42
2022-11-28T22:18:19.196Z,69.65
2022-11-28T22:20:52.820Z,69.98
2022-11-28T22:23:24.226Z,69.67
2022-11-28T22:25:55.895Z,69.95
2022-11-28T22:28:29.184Z,70.25
2022-11-28T22:30:59.945Z,69.81
2022-11-28T22:33:30.478Z,69.85
2022-11-28T22:36:21.151Z,70.24
2022-11-28T22:38:56.448Z,70.47
2022-11-28T22:41:29.745Z,70.11
2022-11-28T22:44:05.769Z,70.07
2022-11-28T22:46:36.842Z,70.01
2022-11-28T22:49:08.925Z,69.91
2022-11-28T22:51:43.158Z,69.91
2022-11-28T22:54:15.000Z,70.53
2022-11-28T22:56:46.308Z,70.31
2022-11-28T22:59:18.221Z,70.40
2022-11-28T23:01:48.535Z,70.18
2022-11-28T23:04:20.119Z,70.34
2022-11-28T23:06:50.937Z,70.44
2022-11-28T23:09:22.318Z,70.39
2022-11-28T23:11:53.249Z,69.97
2022-11-28T23:14:24.527Z,69.92
2022-11-28T23:16:56.389Z,70.34
2022-11-28T23:19:27.355Z,70.32
2022-11-28T23:22:00.103Z,70.48
2022-11-28T23:24:30.745Z,70.78
2022-11-28T23:27:01.565Z,71.55
2022-11-28T23:29:32.519Z,71.41
2022-11-28T23:32:03.088Z,70.89
2022-11-28T23:34:33.428Z,70.60
2022-11-28T23:37:03.879Z,70.44
2022-11-28T23:39:34.215Z,70.80
2022-11-28T23:42:09.397Z,70.65
2022-11-28T23:44:41.244Z,70.22
2022-11-28T23:47:11.644Z,70.05
2022-11-28T23:49:42.572Z,70.37
2022-11-28T23:52:13.058Z,70.36
2022-11-28T23:54:44.505Z,70.53
2022-11-28T23:57:15.201Z,70.33
2022-11-28T23:59:54.327Z,71.09
